sensor_id;sensor_type;location;lat;lon;timestamp;P1;durP1;ratioP1;P2;durP2;ratioP2
34098;SDS011;20374;49.474;10.944;2022-08-25T00:01:24;7.35;;;6.65;;
34098;SDS011;20374;49.474;10.944;2022-08-25T00:03:52;7.18;;;6.50;;
34098;SDS011;20374;49.474;10.944;2022-08-25T00:06:19;7.28;;;6.38;;
34098;SDS011;20374;49.474;10.944;2022-08-25T00:08:45;8.18;;;7.38;;
34098;SDS011;20374;49.474;10.944;2022-08-25T00:11:14;7.25;;;5.68;;
34098;SDS011;20374;49.474;10.944;2022-08-25T00:13:44;6.95;;;6.35;;
34098;SDS011;20374;49.474;10.944;2022-08-25T00:16:13;8.05;;;6.10;;
34098;SDS011;20374;49.474;10.944;2022-08-25T00:18:42;7.88;;;6.22;;
34098;SDS011;20374;49.474;10.944;2022-08-25T00:21:10;7.47;;;6.80;;
34098;SDS011;20374;49.474;10.944;2022-08-25T00:23:37;7.07;;;6.07;;
34098;SDS011;20374;49.474;10.944;2022-08-25T00:26:04;6.97;;;5.95;;
34098;SDS011;20374;49.474;10.944;2022-08-25T00:28:30;7.18;;;6.38;;
34098;SDS011;20374;49.474;10.944;2022-08-25T00:30:56;6.85;;;6.18;;
34098;SDS011;20374;49.474;10.944;2022-08-25T00:33:23;6.57;;;5.97;;
34098;SDS011;20374;49.474;10.944;2022-08-25T00:35:50;7.00;;;6.40;;
34098;SDS011;20374;49.474;10.944;2022-08-25T00:38:17;6.50;;;5.83;;
34098;SDS011;20374;49.474;10.944;2022-08-25T00:40:44;7.75;;;6.28;;
34098;SDS011;20374;49.474;10.944;2022-08-25T00:46:21;6.80;;;6.18;;
34098;SDS011;20374;49.474;10.944;2022-08-25T00:48:55;6.82;;;6.03;;
34098;SDS011;20374;49.474;10.944;2022-08-25T00:51:49;7.00;;;6.00;;
34098;SDS011;20374;49.474;10.944;2022-08-25T00:54:37;7.35;;;6.65;;
34098;SDS011;20374;49.474;10.944;2022-08-25T00:57:10;7.25;;;6.55;;
34098;SDS011;20374;49.474;10.944;2022-08-25T00:59:39;7.28;;;6.57;;
34098;SDS011;20374;49.474;10.944;2022-08-25T01:02:06;7.53;;;6.72;;
34098;SDS011;20374;49.474;10.944;2022-08-25T01:04:33;7.60;;;6.90;;
34098;SDS011;20374;49.474;10.944;2022-08-25T01:06:59;6.90;;;6.20;;
34098;SDS011;20374;49.474;10.944;2022-08-25T01:09:26;6.88;;;6.28;;
34098;SDS011;20374;49.474;10.944;2022-08-25T01:11:55;8.45;;;5.93;;
34098;SDS011;20374;49.474;10.944;2022-08-25T01:14:22;7.45;;;6.75;;
34098;SDS011;20374;49.474;10.944;2022-08-25T01:16:50;7.55;;;6.85;;
34098;SDS011;20374;49.474;10.944;2022-08-25T01:19:17;7.60;;;6.90;;
34098;SDS011;20374;49.474;10.944;2022-08-25T01:21:45;7.63;;;6.75;;
34098;SDS011;20374;49.474;10.944;2022-08-25T01:27:07;7.57;;;6.70;;
34098;SDS011;20374;49.474;10.944;2022-08-25T01:29:34;7.20;;;6.55;;
34098;SDS011;20374;49.474;10.944;2022-08-25T01:32:03;6.90;;;5.72;;
34098;SDS011;20374;49.474;10.944;2022-08-25T01:34:33;7.50;;;6.60;;
34098;SDS011;20374;49.474;10.944;2022-08-25T01:37:01;6.82;;;6.22;;
34098;SDS011;20374;49.474;10.944;2022-08-25T01:39:29;7.40;;;6.65;;
34098;SDS011;20374;49.474;10.944;2022-08-25T01:44:43;6.40;;;5.75;;
34098;SDS011;20374;49.474;10.944;2022-08-25T01:47:10;8.05;;;6.93;;
34098;SDS011;20374;49.474;10.944;2022-08-25T01:49:37;6.78;;;6.07;;
34098;SDS011;20374;49.474;10.944;2022-08-25T01:52:20;7.03;;;6.43;;
34098;SDS011;20374;49.474;10.944;2022-08-25T01:54:49;7.43;;;6.65;;
34098;SDS011;20374;49.474;10.944;2022-08-25T01:57:15;6.82;;;6.10;;
34098;SDS011;20374;49.474;10.944;2022-08-25T01:59:42;6.82;;;6.13;;
34098;SDS011;20374;49.474;10.944;2022-08-25T02:02:09;7.85;;;7.05;;
34098;SDS011;20374;49.474;10.944;2022-08-25T02:04:35;8.95;;;6.80;;
34098;SDS011;20374;49.474;10.944;2022-08-25T02:07:02;7.28;;;6.57;;
34098;SDS011;20374;49.474;10.944;2022-08-25T02:09:30;8.68;;;7.88;;
34098;SDS011;20374;49.474;10.944;2022-08-25T02:11:56;7.43;;;6.72;;
34098;SDS011;20374;49.474;10.944;2022-08-25T02:14:22;7.90;;;7.00;;
34098;SDS011;20374;49.474;10.944;2022-08-25T02:16:49;7.72;;;6.78;;
34098;SDS011;20374;49.474;10.944;2022-08-25T02:19:18;9.05;;;6.28;;
34098;SDS011;20374;49.474;10.944;2022-08-25T02:21:46;7.32;;;6.63;;
34098;SDS011;20374;49.474;10.944;2022-08-25T02:24:12;8.88;;;6.35;;
34098;SDS011;20374;49.474;10.944;2022-08-25T02:26:38;7.23;;;6.53;;
34098;SDS011;20374;49.474;10.944;2022-08-25T02:29:06;7.30;;;6.65;;
34098;SDS011;20374;49.474;10.944;2022-08-25T02:31:32;7.93;;;6.93;;
34098;SDS011;20374;49.474;10.944;2022-08-25T02:33:59;8.10;;;6.45;;
34098;SDS011;20374;49.474;10.944;2022-08-25T02:36:26;10.82;;;6.93;;
34098;SDS011;20374;49.474;10.944;2022-08-25T02:38:52;7.93;;;7.17;;
34098;SDS011;20374;49.474;10.944;2022-08-25T02:41:19;8.90;;;6.78;;
34098;SDS011;20374;49.474;10.944;2022-08-25T02:43:48;8.55;;;7.65;;
34098;SDS011;20374;49.474;10.944;2022-08-25T02:46:16;7.72;;;7.03;;
34098;SDS011;20374;49.474;10.944;2022-08-25T02:48:48;7.78;;;7.07;;
34098;SDS011;20374;49.474;10.944;2022-08-25T02:51:15;7.73;;;6.93;;
34098;SDS011;20374;49.474;10.944;2022-08-25T02:53:41;8.73;;;7.10;;
34098;SDS011;20374;49.474;10.944;2022-08-25T02:56:10;8.02;;;6.90;;
34098;SDS011;20374;49.474;10.944;2022-08-25T02:58:37;7.47;;;6.82;;
34098;SDS011;20374;49.474;10.944;2022-08-25T03:01:05;8.73;;;7.17;;
34098;SDS011;20374;49.474;10.944;2022-08-25T03:03:31;8.35;;;7.45;;
34098;SDS011;20374;49.474;10.944;2022-08-25T03:05:58;7.60;;;6.80;;
34098;SDS011;20374;49.474;10.944;2022-08-25T03:08:24;7.13;;;6.40;;
34098;SDS011;20374;49.474;10.944;2022-08-25T03:10:51;7.78;;;6.80;;
34098;SDS011;20374;49.474;10.944;2022-08-25T03:13:17;8.50;;;7.40;;
34098;SDS011;20374;49.474;10.944;2022-08-25T03:15:43;8.07;;;7.28;;
34098;SDS011;20374;49.474;10.944;2022-08-25T03:18:09;9.40;;;7.70;;
34098;SDS011;20374;49.474;10.944;2022-08-25T03:20:36;8.40;;;7.50;;
34098;SDS011;20374;49.474;10.944;2022-08-25T03:23:03;8.17;;;7.37;;
34098;SDS011;20374;49.474;10.944;2022-08-25T03:25:30;8.07;;;7.22;;
34098;SDS011;20374;49.474;10.944;2022-08-25T03:28:15;10.27;;;7.90;;
34098;SDS011;20374;49.474;10.944;2022-08-25T03:30:41;8.43;;;7.43;;
34098;SDS011;20374;49.474;10.944;2022-08-25T03:33:08;9.65;;;8.20;;
34098;SDS011;20374;49.474;10.944;2022-08-25T03:35:34;8.93;;;7.70;;
34098;SDS011;20374;49.474;10.944;2022-08-25T03:38:00;8.40;;;7.30;;
34098;SDS011;20374;49.474;10.944;2022-08-25T03:40:26;9.05;;;7.72;;
34098;SDS011;20374;49.474;10.944;2022-08-25T03:42:52;8.43;;;7.57;;
34098;SDS011;20374;49.474;10.944;2022-08-25T03:45:19;9.90;;;7.68;;
34098;SDS011;20374;49.474;10.944;2022-08-25T03:47:46;8.45;;;7.38;;
34098;SDS011;20374;49.474;10.944;2022-08-25T03:50:13;9.45;;;7.05;;
34098;SDS011;20374;49.474;10.944;2022-08-25T03:52:40;9.45;;;7.60;;
34098;SDS011;20374;49.474;10.944;2022-08-25T03:55:07;8.90;;;7.95;;
34098;SDS011;20374;49.474;10.944;2022-08-25T03:57:35;8.38;;;7.50;;
34098;SDS011;20374;49.474;10.944;2022-08-25T04:00:03;9.02;;;7.53;;
34098;SDS011;20374;49.474;10.944;2022-08-25T04:02:37;9.23;;;7.40;;
34098;SDS011;20374;49.474;10.944;2022-08-25T04:05:04;8.75;;;7.85;;
34098;SDS011;20374;49.474;10.944;2022-08-25T04:07:30;8.57;;;7.63;;
34098;SDS011;20374;49.474;10.944;2022-08-25T04:09:56;9.38;;;8.48;;
34098;SDS011;20374;49.474;10.944;2022-08-25T04:12:22;8.60;;;7.68;;
34098;SDS011;20374;49.474;10.944;2022-08-25T04:14:48;9.02;;;8.13;;
34098;SDS011;20374;49.474;10.944;2022-08-25T04:17:14;8.40;;;7.53;;
34098;SDS011;20374;49.474;10.944;2022-08-25T04:19:41;8.60;;;7.70;;
34098;SDS011;20374;49.474;10.944;2022-08-25T04:22:07;8.80;;;7.90;;
34098;SDS011;20374;49.474;10.944;2022-08-25T04:24:33;9.95;;;8.95;;
34098;SDS011;20374;49.474;10.944;2022-08-25T04:26:59;9.15;;;8.25;;
34098;SDS011;20374;49.474;10.944;2022-08-25T04:29:25;10.00;;;8.10;;
34098;SDS011;20374;49.474;10.944;2022-08-25T04:31:52;9.88;;;8.40;;
34098;SDS011;20374;49.474;10.944;2022-08-25T04:34:19;10.07;;;8.77;;
34098;SDS011;20374;49.474;10.944;2022-08-25T04:36:47;9.25;;;8.35;;
34098;SDS011;20374;49.474;10.944;2022-08-25T04:39:15;11.77;;;8.68;;
34098;SDS011;20374;49.474;10.944;2022-08-25T04:41:44;10.07;;;8.67;;
34098;SDS011;20374;49.474;10.944;2022-08-25T04:44:11;9.70;;;8.57;;
34098;SDS011;20374;49.474;10.944;2022-08-25T04:46:37;12.10;;;9.32;;
34098;SDS011;20374;49.474;10.944;2022-08-25T04:49:03;9.48;;;7.90;;
34098;SDS011;20374;49.474;10.944;2022-08-25T04:51:31;8.57;;;7.38;;
34098;SDS011;20374;49.474;10.944;2022-08-25T04:53:59;9.38;;;7.82;;
34098;SDS011;20374;49.474;10.944;2022-08-25T04:56:29;9.73;;;8.38;;
34098;SDS011;20374;49.474;10.944;2022-08-25T04:59:01;9.05;;;7.28;;
34098;SDS011;20374;49.474;10.944;2022-08-25T05:01:28;11.32;;;8.73;;
34098;SDS011;20374;49.474;10.944;2022-08-25T05:03:55;10.57;;;7.63;;
34098;SDS011;20374;49.474;10.944;2022-08-25T05:06:23;11.20;;;7.75;;
34098;SDS011;20374;49.474;10.944;2022-08-25T05:08:50;9.20;;;8.18;;
34098;SDS011;20374;49.474;10.944;2022-08-25T05:11:16;10.55;;;9.48;;
34098;SDS011;20374;49.474;10.944;2022-08-25T05:13:44;9.80;;;8.80;;
34098;SDS011;20374;49.474;10.944;2022-08-25T05:16:11;10.73;;;7.95;;
34098;SDS011;20374;49.474;10.944;2022-08-25T05:18:37;10.20;;;8.85;;
34098;SDS011;20374;49.474;10.944;2022-08-25T05:21:05;9.30;;;8.02;;
34098;SDS011;20374;49.474;10.944;2022-08-25T05:23:33;9.18;;;8.23;;
34098;SDS011;20374;49.474;10.944;2022-08-25T05:26:19;11.77;;;8.00;;
34098;SDS011;20374;49.474;10.944;2022-08-25T05:28:46;8.88;;;7.38;;
34098;SDS011;20374;49.474;10.944;2022-08-25T05:31:14;9.70;;;8.70;;
34098;SDS011;20374;49.474;10.944;2022-08-25T05:33:41;9.05;;;8.15;;
34098;SDS011;20374;49.474;10.944;2022-08-25T05:36:08;13.23;;;12.05;;
34098;SDS011;20374;49.474;10.944;2022-08-25T05:38:36;9.40;;;8.20;;
34098;SDS011;20374;49.474;10.944;2022-08-25T05:41:03;11.05;;;8.35;;
34098;SDS011;20374;49.474;10.944;2022-08-25T05:43:31;9.32;;;8.43;;
34098;SDS011;20374;49.474;10.944;2022-08-25T05:45:58;9.02;;;8.13;;
34098;SDS011;20374;49.474;10.944;2022-08-25T05:48:25;10.82;;;9.18;;
34098;SDS011;20374;49.474;10.944;2022-08-25T05:50:56;10.85;;;8.32;;
34098;SDS011;20374;49.474;10.944;2022-08-25T05:53:24;12.27;;;8.73;;
34098;SDS011;20374;49.474;10.944;2022-08-25T05:55:51;11.27;;;8.73;;
34098;SDS011;20374;49.474;10.944;2022-08-25T05:58:18;12.52;;;8.75;;
34098;SDS011;20374;49.474;10.944;2022-08-25T06:00:46;9.77;;;8.77;;
34098;SDS011;20374;49.474;10.944;2022-08-25T06:03:11;9.38;;;8.48;;
34098;SDS011;20374;49.474;10.944;2022-08-25T06:05:37;10.68;;;9.25;;
34098;SDS011;20374;49.474;10.944;2022-08-25T06:08:04;9.38;;;8.45;;
34098;SDS011;20374;49.474;10.944;2022-08-25T06:10:30;9.55;;;8.65;;
34098;SDS011;20374;49.474;10.944;2022-08-25T06:12:56;8.20;;;7.40;;
34098;SDS011;20374;49.474;10.944;2022-08-25T06:15:22;9.95;;;8.27;;
34098;SDS011;20374;49.474;10.944;2022-08-25T06:17:49;9.43;;;8.38;;
34098;SDS011;20374;49.474;10.944;2022-08-25T06:20:20;8.95;;;8.07;;
34098;SDS011;20374;49.474;10.944;2022-08-25T06:22:48;8.88;;;8.07;;
34098;SDS011;20374;49.474;10.944;2022-08-25T06:25:16;9.02;;;8.05;;
34098;SDS011;20374;49.474;10.944;2022-08-25T06:27:44;10.30;;;9.25;;
34098;SDS011;20374;49.474;10.944;2022-08-25T06:30:11;11.52;;;8.88;;
34098;SDS011;20374;49.474;10.944;2022-08-25T06:32:39;9.40;;;8.50;;
34098;SDS011;20374;49.474;10.944;2022-08-25T06:35:08;9.48;;;8.57;;
34098;SDS011;20374;49.474;10.944;2022-08-25T06:37:36;9.02;;;8.13;;
34098;SDS011;20374;49.474;10.944;2022-08-25T06:40:02;9.27;;;8.38;;
34098;SDS011;20374;49.474;10.944;2022-08-25T06:42:30;9.45;;;8.48;;
34098;SDS011;20374;49.474;10.944;2022-08-25T06:44:56;9.38;;;7.65;;
34098;SDS011;20374;49.474;10.944;2022-08-25T06:47:22;13.53;;;12.43;;
34098;SDS011;20374;49.474;10.944;2022-08-25T06:49:48;8.93;;;8.13;;
34098;SDS011;20374;49.474;10.944;2022-08-25T06:52:14;9.63;;;8.80;;
34098;SDS011;20374;49.474;10.944;2022-08-25T06:54:40;9.82;;;8.93;;
34098;SDS011;20374;49.474;10.944;2022-08-25T06:57:07;10.67;;;9.63;;
34098;SDS011;20374;49.474;10.944;2022-08-25T06:59:33;9.40;;;8.60;;
34098;SDS011;20374;49.474;10.944;2022-08-25T07:02:00;10.05;;;9.13;;
34098;SDS011;20374;49.474;10.944;2022-08-25T07:04:26;10.38;;;8.40;;
34098;SDS011;20374;49.474;10.944;2022-08-25T07:06:52;9.73;;;8.68;;
34098;SDS011;20374;49.474;10.944;2022-08-25T07:09:19;9.60;;;8.70;;
34098;SDS011;20374;49.474;10.944;2022-08-25T07:11:45;9.68;;;8.85;;
34098;SDS011;20374;49.474;10.944;2022-08-25T07:14:12;10.48;;;9.43;;
34098;SDS011;20374;49.474;10.944;2022-08-25T07:16:40;8.98;;;8.18;;
34098;SDS011;20374;49.474;10.944;2022-08-25T07:19:08;12.15;;;9.07;;
34098;SDS011;20374;49.474;10.944;2022-08-25T07:21:36;10.97;;;9.77;;
34098;SDS011;20374;49.474;10.944;2022-08-25T07:24:05;9.20;;;8.30;;
34098;SDS011;20374;49.474;10.944;2022-08-25T07:26:37;10.48;;;9.52;;
34098;SDS011;20374;49.474;10.944;2022-08-25T07:29:09;9.88;;;9.00;;
34098;SDS011;20374;49.474;10.944;2022-08-25T07:31:43;9.88;;;9.00;;
34098;SDS011;20374;49.474;10.944;2022-08-25T07:34:10;9.00;;;8.10;;
34098;SDS011;20374;49.474;10.944;2022-08-25T07:36:54;9.77;;;8.27;;
34098;SDS011;20374;49.474;10.944;2022-08-25T07:39:21;9.65;;;8.70;;
34098;SDS011;20374;49.474;10.944;2022-08-25T07:41:49;10.60;;;9.35;;
34098;SDS011;20374;49.474;10.944;2022-08-25T07:44:15;10.30;;;9.32;;
34098;SDS011;20374;49.474;10.944;2022-08-25T07:46:42;9.87;;;8.97;;
34098;SDS011;20374;49.474;10.944;2022-08-25T07:49:09;10.50;;;9.40;;
34098;SDS011;20374;49.474;10.944;2022-08-25T07:51:35;10.70;;;9.80;;
34098;SDS011;20374;49.474;10.944;2022-08-25T07:54:01;10.45;;;9.20;;
34098;SDS011;20374;49.474;10.944;2022-08-25T07:56:29;10.02;;;9.13;;
34098;SDS011;20374;49.474;10.944;2022-08-25T07:58:55;9.33;;;8.43;;
34098;SDS011;20374;49.474;10.944;2022-08-25T08:01:21;9.95;;;9.07;;
34098;SDS011;20374;49.474;10.944;2022-08-25T08:03:49;10.25;;;9.23;;
34098;SDS011;20374;49.474;10.944;2022-08-25T08:06:22;9.57;;;8.68;;
34098;SDS011;20374;49.474;10.944;2022-08-25T08:08:50;9.85;;;9.02;;
34098;SDS011;20374;49.474;10.944;2022-08-25T08:11:19;13.80;;;10.10;;
34098;SDS011;20374;49.474;10.944;2022-08-25T08:13:47;9.38;;;8.55;;
34098;SDS011;20374;49.474;10.944;2022-08-25T08:16:14;10.25;;;9.25;;
34098;SDS011;20374;49.474;10.944;2022-08-25T08:18:43;9.95;;;9.02;;
34098;SDS011;20374;49.474;10.944;2022-08-25T08:21:10;9.95;;;8.98;;
34098;SDS011;20374;49.474;10.944;2022-08-25T08:23:47;9.80;;;8.90;;
34098;SDS011;20374;49.474;10.944;2022-08-25T08:26:14;8.60;;;7.10;;
34098;SDS011;20374;49.474;10.944;2022-08-25T08:28:40;10.02;;;9.13;;
34098;SDS011;20374;49.474;10.944;2022-08-25T08:31:06;9.55;;;8.75;;
34098;SDS011;20374;49.474;10.944;2022-08-25T08:33:32;10.32;;;9.43;;
34098;SDS011;20374;49.474;10.944;2022-08-25T08:36:04;9.65;;;8.75;;
34098;SDS011;20374;49.474;10.944;2022-08-25T08:38:35;10.57;;;9.65;;
34098;SDS011;20374;49.474;10.944;2022-08-25T08:44:17;10.02;;;9.13;;
34098;SDS011;20374;49.474;10.944;2022-08-25T08:52:00;8.63;;;7.80;;
34098;SDS011;20374;49.474;10.944;2022-08-25T08:54:28;9.40;;;8.68;;
34098;SDS011;20374;49.474;10.944;2022-08-25T08:57:03;8.73;;;8.02;;
34098;SDS011;20374;49.474;10.944;2022-08-25T08:59:43;9.48;;;8.75;;
34098;SDS011;20374;49.474;10.944;2022-08-25T09:02:25;8.05;;;7.32;;
34098;SDS011;20374;49.474;10.944;2022-08-25T09:05:02;7.97;;;7.38;;
34098;SDS011;20374;49.474;10.944;2022-08-25T09:07:38;9.43;;;8.68;;
34098;SDS011;20374;49.474;10.944;2022-08-25T09:10:32;7.32;;;6.70;;
34098;SDS011;20374;49.474;10.944;2022-08-25T09:13:11;8.35;;;7.75;;
34098;SDS011;20374;49.474;10.944;2022-08-25T09:24:39;8.00;;;7.25;;
34098;SDS011;20374;49.474;10.944;2022-08-25T09:30:05;7.45;;;6.85;;
34098;SDS011;20374;49.474;10.944;2022-08-25T09:32:41;8.95;;;8.18;;
34098;SDS011;20374;49.474;10.944;2022-08-25T09:35:18;7.53;;;6.82;;
34098;SDS011;20374;49.474;10.944;2022-08-25T09:37:58;7.45;;;6.85;;
34098;SDS011;20374;49.474;10.944;2022-08-25T09:40:30;8.30;;;7.70;;
34098;SDS011;20374;49.474;10.944;2022-08-25T09:43:01;6.30;;;5.75;;
34098;SDS011;20374;49.474;10.944;2022-08-25T09:45:40;7.88;;;7.28;;
34098;SDS011;20374;49.474;10.944;2022-08-25T09:50:49;7.47;;;6.88;;
34098;SDS011;20374;49.474;10.944;2022-08-25T09:53:18;8.70;;;8.00;;
34098;SDS011;20374;49.474;10.944;2022-08-25T09:55:45;7.13;;;6.45;;
34098;SDS011;20374;49.474;10.944;2022-08-25T09:58:21;7.50;;;6.90;;
34098;SDS011;20374;49.474;10.944;2022-08-25T10:03:58;7.80;;;7.13;;
34098;SDS011;20374;49.474;10.944;2022-08-25T10:06:33;8.50;;;7.60;;
34098;SDS011;20374;49.474;10.944;2022-08-25T10:09:11;7.07;;;6.35;;
34098;SDS011;20374;49.474;10.944;2022-08-25T10:11:47;7.55;;;6.85;;
34098;SDS011;20374;49.474;10.944;2022-08-25T10:16:42;7.90;;;7.20;;
34098;SDS011;20374;49.474;10.944;2022-08-25T10:19:31;7.72;;;7.03;;
34098;SDS011;20374;49.474;10.944;2022-08-25T10:24:28;7.97;;;7.38;;
34098;SDS011;20374;49.474;10.944;2022-08-25T10:27:00;7.53;;;6.90;;
34098;SDS011;20374;49.474;10.944;2022-08-25T10:32:33;7.85;;;7.20;;
34098;SDS011;20374;49.474;10.944;2022-08-25T10:35:08;6.85;;;6.35;;
34098;SDS011;20374;49.474;10.944;2022-08-25T10:37:59;6.93;;;6.32;;
34098;SDS011;20374;49.474;10.944;2022-08-25T10:40:37;8.35;;;7.65;;
34098;SDS011;20374;49.474;10.944;2022-08-25T10:45:49;7.45;;;6.90;;
34098;SDS011;20374;49.474;10.944;2022-08-25T10:48:24;7.32;;;6.70;;
34098;SDS011;20374;49.474;10.944;2022-08-25T11:08:50;7.93;;;7.25;;
34098;SDS011;20374;49.474;10.944;2022-08-25T11:14:18;8.13;;;7.53;;
34098;SDS011;20374;49.474;10.944;2022-08-25T11:16:51;8.32;;;7.53;;
34098;SDS011;20374;49.474;10.944;2022-08-25T11:22:12;8.68;;;7.97;;
34098;SDS011;20374;49.474;10.944;2022-08-25T11:30:13;7.60;;;6.55;;
34098;SDS011;20374;49.474;10.944;2022-08-25T11:32:43;7.30;;;6.70;;
34098;SDS011;20374;49.474;10.944;2022-08-25T11:35:15;8.00;;;7.40;;
34098;SDS011;20374;49.474;10.944;2022-08-25T11:51:46;7.95;;;7.28;;
34098;SDS011;20374;49.474;10.944;2022-08-25T12:10:25;8.23;;;7.43;;
34098;SDS011;20374;49.474;10.944;2022-08-25T12:13:46;8.07;;;7.38;;
34098;SDS011;20374;49.474;10.944;2022-08-25T12:19:24;8.25;;;7.55;;
34098;SDS011;20374;49.474;10.944;2022-08-25T12:27:21;8.10;;;7.50;;
34098;SDS011;20374;49.474;10.944;2022-08-25T12:35:16;7.50;;;6.72;;
34098;SDS011;20374;49.474;10.944;2022-08-25T12:40:33;7.88;;;7.28;;
34098;SDS011;20374;49.474;10.944;2022-08-25T12:45:48;7.20;;;6.70;;
34098;SDS011;20374;49.474;10.944;2022-08-25T12:48:38;6.68;;;6.15;;
34098;SDS011;20374;49.474;10.944;2022-08-25T12:51:08;7.93;;;7.32;;
34098;SDS011;20374;49.474;10.944;2022-08-25T12:53:46;7.38;;;6.78;;
34098;SDS011;20374;49.474;10.944;2022-08-25T12:56:34;8.15;;;7.35;;
34098;SDS011;20374;49.474;10.944;2022-08-25T12:59:16;7.82;;;7.20;;
34098;SDS011;20374;49.474;10.944;2022-08-25T13:07:34;7.05;;;6.45;;
34098;SDS011;20374;49.474;10.944;2022-08-25T13:12:54;5.85;;;5.32;;
34098;SDS011;20374;49.474;10.944;2022-08-25T13:15:38;6.13;;;5.57;;
34098;SDS011;20374;49.474;10.944;2022-08-25T13:20:38;7.22;;;6.63;;
34098;SDS011;20374;49.474;10.944;2022-08-25T13:23:04;6.72;;;6.07;;
34098;SDS011;20374;49.474;10.944;2022-08-25T13:25:30;6.97;;;6.38;;
34098;SDS011;20374;49.474;10.944;2022-08-25T13:27:59;6.60;;;6.05;;
34098;SDS011;20374;49.474;10.944;2022-08-25T13:30:28;6.65;;;6.15;;
34098;SDS011;20374;49.474;10.944;2022-08-25T13:32:59;6.67;;;6.03;;
34098;SDS011;20374;49.474;10.944;2022-08-25T13:35:44;7.88;;;7.13;;
34098;SDS011;20374;49.474;10.944;2022-08-25T13:38:34;7.75;;;7.13;;
34098;SDS011;20374;49.474;10.944;2022-08-25T13:41:01;8.25;;;7.65;;
34098;SDS011;20374;49.474;10.944;2022-08-25T13:43:28;7.97;;;7.20;;
34098;SDS011;20374;49.474;10.944;2022-08-25T13:45:54;7.37;;;6.67;;
34098;SDS011;20374;49.474;10.944;2022-08-25T13:48:34;6.22;;;5.72;;
34098;SDS011;20374;49.474;10.944;2022-08-25T13:51:21;8.18;;;7.55;;
34098;SDS011;20374;49.474;10.944;2022-08-25T13:54:00;7.68;;;7.07;;
34098;SDS011;20374;49.474;10.944;2022-08-25T13:56:32;8.40;;;7.80;;
34098;SDS011;20374;49.474;10.944;2022-08-25T13:59:03;7.47;;;6.80;;
34098;SDS011;20374;49.474;10.944;2022-08-25T14:01:32;7.32;;;6.72;;
34098;SDS011;20374;49.474;10.944;2022-08-25T14:09:50;8.57;;;7.95;;
34098;SDS011;20374;49.474;10.944;2022-08-25T14:15:24;7.20;;;6.60;;
34098;SDS011;20374;49.474;10.944;2022-08-25T14:18:01;7.07;;;6.35;;
34098;SDS011;20374;49.474;10.944;2022-08-25T14:20:42;6.75;;;6.22;;
34098;SDS011;20374;49.474;10.944;2022-08-25T14:23:14;7.97;;;7.28;;
34098;SDS011;20374;49.474;10.944;2022-08-25T14:25:42;7.95;;;7.25;;
34098;SDS011;20374;49.474;10.944;2022-08-25T14:28:10;7.38;;;6.78;;
34098;SDS011;20374;49.474;10.944;2022-08-25T14:30:40;6.97;;;6.38;;
34098;SDS011;20374;49.474;10.944;2022-08-25T14:33:14;7.05;;;6.40;;
34098;SDS011;20374;49.474;10.944;2022-08-25T14:35:44;7.88;;;7.07;;
34098;SDS011;20374;49.474;10.944;2022-08-25T14:38:13;7.38;;;6.78;;
34098;SDS011;20374;49.474;10.944;2022-08-25T14:40:40;7.53;;;6.93;;
34098;SDS011;20374;49.474;10.944;2022-08-25T14:43:06;8.18;;;7.57;;
34098;SDS011;20374;49.474;10.944;2022-08-25T14:45:33;7.82;;;7.22;;
34098;SDS011;20374;49.474;10.944;2022-08-25T14:48:03;7.43;;;6.93;;
34098;SDS011;20374;49.474;10.944;2022-08-25T14:50:31;9.32;;;6.53;;
34098;SDS011;20374;49.474;10.944;2022-08-25T14:52:57;7.07;;;6.47;;
34098;SDS011;20374;49.474;10.944;2022-08-25T14:55:25;6.85;;;6.25;;
34098;SDS011;20374;49.474;10.944;2022-08-25T14:57:51;6.65;;;6.13;;
34098;SDS011;20374;49.474;10.944;2022-08-25T15:00:17;8.50;;;7.80;;
34098;SDS011;20374;49.474;10.944;2022-08-25T15:02:43;7.28;;;6.78;;
34098;SDS011;20374;49.474;10.944;2022-08-25T15:05:13;7.65;;;6.93;;
34098;SDS011;20374;49.474;10.944;2022-08-25T15:07:40;6.70;;;6.07;;
34098;SDS011;20374;49.474;10.944;2022-08-25T15:10:34;6.38;;;5.78;;
34098;SDS011;20374;49.474;10.944;2022-08-25T15:13:00;6.40;;;5.90;;
34098;SDS011;20374;49.474;10.944;2022-08-25T15:15:26;7.15;;;6.50;;
34098;SDS011;20374;49.474;10.944;2022-08-25T15:17:53;7.20;;;6.70;;
34098;SDS011;20374;49.474;10.944;2022-08-25T15:20:20;6.13;;;5.53;;
34098;SDS011;20374;49.474;10.944;2022-08-25T15:22:46;7.43;;;6.82;;
34098;SDS011;20374;49.474;10.944;2022-08-25T15:25:21;7.15;;;6.65;;
34098;SDS011;20374;49.474;10.944;2022-08-25T15:28:04;6.85;;;6.35;;
34098;SDS011;20374;49.474;10.944;2022-08-25T15:30:33;7.93;;;7.43;;
34098;SDS011;20374;49.474;10.944;2022-08-25T15:33:00;6.65;;;6.05;;
34098;SDS011;20374;49.474;10.944;2022-08-25T15:35:26;7.25;;;6.60;;
34098;SDS011;20374;49.474;10.944;2022-08-25T15:37:52;6.22;;;5.70;;
34098;SDS011;20374;49.474;10.944;2022-08-25T15:40:18;7.47;;;6.97;;
34098;SDS011;20374;49.474;10.944;2022-08-25T15:42:44;7.40;;;6.80;;
34098;SDS011;20374;49.474;10.944;2022-08-25T15:45:11;7.75;;;7.05;;
34098;SDS011;20374;49.474;10.944;2022-08-25T15:47:40;6.40;;;5.87;;
34098;SDS011;20374;49.474;10.944;2022-08-25T15:50:10;6.05;;;5.65;;
34098;SDS011;20374;49.474;10.944;2022-08-25T15:52:39;7.40;;;6.82;;
34098;SDS011;20374;49.474;10.944;2022-08-25T15:55:06;6.15;;;5.65;;
34098;SDS011;20374;49.474;10.944;2022-08-25T16:00:24;7.73;;;7.13;;
34098;SDS011;20374;49.474;10.944;2022-08-25T16:02:50;6.55;;;6.03;;
34098;SDS011;20374;49.474;10.944;2022-08-25T16:05:16;7.38;;;6.75;;
34098;SDS011;20374;49.474;10.944;2022-08-25T16:07:43;6.97;;;6.38;;
34098;SDS011;20374;49.474;10.944;2022-08-25T16:10:10;7.68;;;7.07;;
34098;SDS011;20374;49.474;10.944;2022-08-25T16:12:36;8.27;;;7.68;;
34098;SDS011;20374;49.474;10.944;2022-08-25T16:15:04;7.28;;;6.70;;
34098;SDS011;20374;49.474;10.944;2022-08-25T16:17:31;6.63;;;6.13;;
34098;SDS011;20374;49.474;10.944;2022-08-25T16:19:56;6.90;;;6.25;;
34098;SDS011;20374;49.474;10.944;2022-08-25T16:22:22;5.93;;;5.43;;
34098;SDS011;20374;49.474;10.944;2022-08-25T16:24:48;7.80;;;7.20;;
34098;SDS011;20374;49.474;10.944;2022-08-25T16:27:14;7.05;;;6.55;;
34098;SDS011;20374;49.474;10.944;2022-08-25T16:29:41;6.45;;;5.95;;
34098;SDS011;20374;49.474;10.944;2022-08-25T16:32:09;7.22;;;6.65;;
34098;SDS011;20374;49.474;10.944;2022-08-25T16:34:37;7.05;;;6.38;;
34098;SDS011;20374;49.474;10.944;2022-08-25T16:37:03;8.35;;;7.65;;
34098;SDS011;20374;49.474;10.944;2022-08-25T16:39:29;7.40;;;6.80;;
34098;SDS011;20374;49.474;10.944;2022-08-25T16:41:55;7.18;;;6.68;;
34098;SDS011;20374;49.474;10.944;2022-08-25T16:44:21;7.05;;;6.50;;
34098;SDS011;20374;49.474;10.944;2022-08-25T16:46:47;6.78;;;6.18;;
34098;SDS011;20374;49.474;10.944;2022-08-25T16:49:13;8.80;;;6.13;;
34098;SDS011;20374;49.474;10.944;2022-08-25T16:51:40;6.18;;;5.68;;
34098;SDS011;20374;49.474;10.944;2022-08-25T16:54:07;7.35;;;6.70;;
34098;SDS011;20374;49.474;10.944;2022-08-25T16:56:53;7.47;;;6.88;;
34098;SDS011;20374;49.474;10.944;2022-08-25T16:59:21;6.77;;;6.27;;
34098;SDS011;20374;49.474;10.944;2022-08-25T17:01:48;6.90;;;6.30;;
34098;SDS011;20374;49.474;10.944;2022-08-25T17:04:13;7.43;;;6.82;;
34098;SDS011;20374;49.474;10.944;2022-08-25T17:06:40;6.73;;;6.13;;
34098;SDS011;20374;49.474;10.944;2022-08-25T17:09:08;7.07;;;6.55;;
34098;SDS011;20374;49.474;10.944;2022-08-25T17:11:38;7.38;;;6.72;;
34098;SDS011;20374;49.474;10.944;2022-08-25T17:14:09;6.97;;;6.25;;